Elyria, OH

11:00 PM EST on January 24, 2015 (GMT -0500)
St. Mary School - Avon, OH | Change Station
CLOSE
Current Station
Personal Weather Station
Location: Avon, OH
Elevation: 682 ft
Nearby Weather Stations
Active Advisory: Winter Weather Advisory

Elev 682 ft 41.45 °N, 82.03 °W | Updated 7 seconds ago

Overcast
Overcast
35.2 °F
Feels Like 32 °F
N
4.0
Wind Variable Wind from WSW
Gusts 7.0 mph

Today
High -- | Low -- °F
--% Chance of Precip.
Yesterday
High -- | Low -- °F
Precip. -- in
7:46 AM 5:34 PM
Waxing Crescent, 28% visible
Pressure 29.71 in
Visibility 7.0 miles
Clouds Mostly Cloudy 2400 ft
Overcast 3000 ft
Windchill 32 °F
Dew Point 32 °F
Humidity 88%
Rainfall 0.00 in
Snow Depth Not available.
UV 0 out of 12
Pollen .10 out of 12
Air Quality Not available.
Flu Activity Not available.
METAR KLPR 250353Z AUTO 26010KT 7SM BKN024 OVC030 01/M02 A2969 RMK AO2 SLP061 T00111017 TSNO

More Conditions Fewer Conditions

Pressure 29.71 in
Visibility 7.0 miles
Clouds Mostly Cloudy 2400 ft
Overcast 3000 ft
Windchill 32 °F
Dew Point 32 °F
Humidity 88%
Rainfall 0.00 in
Snow Depth Not available.
UV 0 out of 12
Pollen .10 out of 12
Air Quality Not available.
Flu Activity Not available.
METAR KLPR 250353Z AUTO 26010KT 7SM BKN024 OVC030 01/M02 A2969 RMK AO2 SLP061 T00111017 TSNO

More Conditions Fewer Conditions

10-Day Weather Forecast

Almanac

Astronomy

Jan. 24, 2015 Rise Set
Actual Time
Civil Twilight
Nautical Twilight
Astronomical Twilight
Moon
Length of Visible Light
Length of Day
Tomorrow will be .
, % of the Moon is Illuminated

Today's Extremes

State Highs State Lows

Community

WunderPhotos

Upload Photos

1,789,833 photos uploaded!

WunderBlogs® & News

Nearby

Air Quality

  Air Quality AQ Index Pollutant
Not available.

Snow Depth

Station Depth Elevation

Earthquake Activity

City Distance Mag. Time & Date
Minimum magnitude displayed is 2.5.

Coastal Water Temperatures

Place Temperature

Nearby Weather Stations